sensor_id;sensor_type;location;lat;lon;timestamp;P1;durP1;ratioP1;P2;durP2;ratioP2
16520;SDS011;8373;48.110;11.522;2022-11-20T10:24:02;10.27;;;3.00;;
16520;SDS011;8373;48.110;11.522;2022-11-20T11:55:12;5.73;;;3.00;;
16520;SDS011;8373;48.110;11.522;2022-11-20T11:57:43;9.50;;;3.20;;
16520;SDS011;8373;48.110;11.522;2022-11-20T12:00:15;7.97;;;3.43;;
16520;SDS011;8373;48.110;11.522;2022-11-20T12:02:46;7.57;;;3.53;;
16520;SDS011;8373;48.110;11.522;2022-11-20T12:05:23;5.87;;;3.33;;
16520;SDS011;8373;48.110;11.522;2022-11-20T12:07:54;10.47;;;4.27;;
16520;SDS011;8373;48.110;11.522;2022-11-20T12:10:30;15.60;;;3.97;;
16520;SDS011;8373;48.110;11.522;2022-11-20T12:13:10;7.37;;;4.10;;
16520;SDS011;8373;48.110;11.522;2022-11-20T12:15:46;7.27;;;3.73;;
16520;SDS011;8373;48.110;11.522;2022-11-20T12:18:14;8.90;;;4.33;;
16520;SDS011;8373;48.110;11.522;2022-11-20T12:20:45;9.20;;;4.00;;
16520;SDS011;8373;48.110;11.522;2022-11-20T12:23:21;11.40;;;3.90;;
16520;SDS011;8373;48.110;11.522;2022-11-20T12:25:55;9.87;;;3.77;;
16520;SDS011;8373;48.110;11.522;2022-11-20T12:28:33;8.77;;;3.70;;
16520;SDS011;8373;48.110;11.522;2022-11-20T12:31:12;7.37;;;4.07;;
16520;SDS011;8373;48.110;11.522;2022-11-20T12:34:02;10.40;;;4.10;;
16520;SDS011;8373;48.110;11.522;2022-11-20T12:36:40;7.47;;;3.70;;
16520;SDS011;8373;48.110;11.522;2022-11-20T12:45:23;8.67;;;3.53;;
16520;SDS011;8373;48.110;11.522;2022-11-20T12:48:18;6.43;;;3.40;;
16520;SDS011;8373;48.110;11.522;2022-11-20T12:51:06;7.80;;;3.40;;
16520;SDS011;8373;48.110;11.522;2022-11-20T12:54:06;7.57;;;3.60;;
16520;SDS011;8373;48.110;11.522;2022-11-20T12:56:55;7.00;;;3.70;;
16520;SDS011;8373;48.110;11.522;2022-11-20T12:59:33;8.67;;;4.60;;
16520;SDS011;8373;48.110;11.522;2022-11-20T13:02:16;6.30;;;3.23;;
16520;SDS011;8373;48.110;11.522;2022-11-20T13:04:55;7.40;;;3.90;;
16520;SDS011;8373;48.110;11.522;2022-11-20T13:07:36;7.70;;;3.90;;
16520;SDS011;8373;48.110;11.522;2022-11-20T13:10:03;7.10;;;3.83;;
16520;SDS011;8373;48.110;11.522;2022-11-20T13:12:43;10.23;;;4.13;;
16520;SDS011;8373;48.110;11.522;2022-11-20T13:15:17;6.77;;;3.90;;
16520;SDS011;8373;48.110;11.522;2022-11-20T13:17:54;7.97;;;3.90;;
16520;SDS011;8373;48.110;11.522;2022-11-20T13:20:24;7.73;;;3.83;;
16520;SDS011;8373;48.110;11.522;2022-11-20T13:22:52;8.57;;;4.20;;
16520;SDS011;8373;48.110;11.522;2022-11-20T13:25:22;7.80;;;4.10;;
16520;SDS011;8373;48.110;11.522;2022-11-20T13:27:51;7.37;;;3.97;;
16520;SDS011;8373;48.110;11.522;2022-11-20T13:30:20;9.10;;;4.47;;
16520;SDS011;8373;48.110;11.522;2022-11-20T13:32:49;8.67;;;4.30;;
16520;SDS011;8373;48.110;11.522;2022-11-20T13:35:24;9.90;;;4.33;;
16520;SDS011;8373;48.110;11.522;2022-11-20T13:38:00;10.47;;;4.90;;
16520;SDS011;8373;48.110;11.522;2022-11-20T13:40:29;10.90;;;4.33;;
16520;SDS011;8373;48.110;11.522;2022-11-20T13:43:01;6.73;;;3.77;;
16520;SDS011;8373;48.110;11.522;2022-11-20T13:45:40;7.10;;;3.83;;
16520;SDS011;8373;48.110;11.522;2022-11-20T13:48:18;9.53;;;4.53;;
16520;SDS011;8373;48.110;11.522;2022-11-20T13:50:51;15.03;;;4.13;;
16520;SDS011;8373;48.110;11.522;2022-11-20T13:53:27;7.40;;;3.93;;
16520;SDS011;8373;48.110;11.522;2022-11-20T13:56:09;8.73;;;4.53;;
16520;SDS011;8373;48.110;11.522;2022-11-20T13:58:51;7.13;;;4.40;;
16520;SDS011;8373;48.110;11.522;2022-11-20T14:01:28;11.13;;;4.50;;
16520;SDS011;8373;48.110;11.522;2022-11-20T14:03:57;6.30;;;3.80;;
16520;SDS011;8373;48.110;11.522;2022-11-20T14:06:26;9.07;;;4.23;;
16520;SDS011;8373;48.110;11.522;2022-11-20T14:08:55;8.47;;;3.90;;
16520;SDS011;8373;48.110;11.522;2022-11-20T14:11:23;7.60;;;3.77;;
16520;SDS011;8373;48.110;11.522;2022-11-20T14:13:57;11.00;;;4.60;;
16520;SDS011;8373;48.110;11.522;2022-11-20T14:16:27;6.60;;;3.57;;
16520;SDS011;8373;48.110;11.522;2022-11-20T14:18:55;8.33;;;4.13;;
16520;SDS011;8373;48.110;11.522;2022-11-20T14:21:24;12.57;;;5.03;;
16520;SDS011;8373;48.110;11.522;2022-11-20T14:23:53;10.60;;;5.23;;
16520;SDS011;8373;48.110;11.522;2022-11-20T14:26:20;8.50;;;3.90;;
16520;SDS011;8373;48.110;11.522;2022-11-20T14:28:48;8.97;;;4.90;;
16520;SDS011;8373;48.110;11.522;2022-11-20T14:31:21;8.10;;;4.47;;
16520;SDS011;8373;48.110;11.522;2022-11-20T14:33:51;10.03;;;5.03;;
16520;SDS011;8373;48.110;11.522;2022-11-20T14:36:19;10.50;;;5.00;;
16520;SDS011;8373;48.110;11.522;2022-11-20T14:38:48;10.23;;;4.73;;
16520;SDS011;8373;48.110;11.522;2022-11-20T14:41:17;7.93;;;4.37;;
16520;SDS011;8373;48.110;11.522;2022-11-20T14:43:47;11.20;;;4.13;;
16520;SDS011;8373;48.110;11.522;2022-11-20T14:46:17;7.33;;;3.83;;
16520;SDS011;8373;48.110;11.522;2022-11-20T14:48:46;10.67;;;4.43;;
16520;SDS011;8373;48.110;11.522;2022-11-20T14:51:27;9.23;;;3.57;;
16520;SDS011;8373;48.110;11.522;2022-11-20T14:54:07;5.87;;;2.67;;
16520;SDS011;8373;48.110;11.522;2022-11-20T14:56:35;7.27;;;3.10;;
16520;SDS011;8373;48.110;11.522;2022-11-20T14:59:02;9.80;;;3.00;;
16520;SDS011;8373;48.110;11.522;2022-11-20T15:01:30;6.37;;;3.13;;
16520;SDS011;8373;48.110;11.522;2022-11-20T15:04:05;10.80;;;3.50;;
16520;SDS011;8373;48.110;11.522;2022-11-20T15:06:34;8.30;;;3.20;;
16520;SDS011;8373;48.110;11.522;2022-11-20T15:09:02;12.80;;;4.97;;
16520;SDS011;8373;48.110;11.522;2022-11-20T15:11:32;18.87;;;5.63;;
16520;SDS011;8373;48.110;11.522;2022-11-20T15:14:02;6.27;;;2.90;;
16520;SDS011;8373;48.110;11.522;2022-11-20T15:16:30;14.70;;;4.97;;
16520;SDS011;8373;48.110;11.522;2022-11-20T15:18:58;14.30;;;4.33;;
16520;SDS011;8373;48.110;11.522;2022-11-20T15:21:27;10.27;;;3.53;;
16520;SDS011;8373;48.110;11.522;2022-11-20T15:23:54;15.00;;;4.67;;
16520;SDS011;8373;48.110;11.522;2022-11-20T15:26:26;10.33;;;4.30;;
16520;SDS011;8373;48.110;11.522;2022-11-20T15:28:54;14.27;;;4.20;;
16520;SDS011;8373;48.110;11.522;2022-11-20T15:31:21;13.43;;;4.10;;
16520;SDS011;8373;48.110;11.522;2022-11-20T15:33:49;11.03;;;4.10;;
16520;SDS011;8373;48.110;11.522;2022-11-20T15:36:17;16.80;;;6.10;;
16520;SDS011;8373;48.110;11.522;2022-11-20T15:38:45;13.00;;;5.77;;
16520;SDS011;8373;48.110;11.522;2022-11-20T15:41:12;11.37;;;5.20;;
16520;SDS011;8373;48.110;11.522;2022-11-20T15:43:39;13.90;;;5.17;;
16520;SDS011;8373;48.110;11.522;2022-11-20T15:46:08;16.00;;;6.10;;
16520;SDS011;8373;48.110;11.522;2022-11-20T15:48:38;9.00;;;4.27;;
16520;SDS011;8373;48.110;11.522;2022-11-20T15:51:11;15.20;;;5.93;;
16520;SDS011;8373;48.110;11.522;2022-11-20T15:53:45;11.83;;;5.20;;
16520;SDS011;8373;48.110;11.522;2022-11-20T15:56:13;16.87;;;5.07;;
16520;SDS011;8373;48.110;11.522;2022-11-20T15:58:40;12.87;;;5.43;;
16520;SDS011;8373;48.110;11.522;2022-11-20T16:01:09;14.60;;;5.50;;
16520;SDS011;8373;48.110;11.522;2022-11-20T16:03:37;18.90;;;5.77;;
16520;SDS011;8373;48.110;11.522;2022-11-20T16:06:05;11.10;;;4.53;;
16520;SDS011;8373;48.110;11.522;2022-11-20T16:08:32;12.57;;;5.20;;
16520;SDS011;8373;48.110;11.522;2022-11-20T16:11:01;9.37;;;4.70;;
16520;SDS011;8373;48.110;11.522;2022-11-20T16:13:28;10.17;;;4.30;;
16520;SDS011;8373;48.110;11.522;2022-11-20T16:16:17;11.80;;;4.33;;
16520;SDS011;8373;48.110;11.522;2022-11-20T16:18:47;9.70;;;4.60;;
16520;SDS011;8373;48.110;11.522;2022-11-20T16:21:14;8.63;;;4.53;;
16520;SDS011;8373;48.110;11.522;2022-11-20T16:23:42;9.10;;;4.37;;
16520;SDS011;8373;48.110;11.522;2022-11-20T16:26:11;12.20;;;5.27;;
16520;SDS011;8373;48.110;11.522;2022-11-20T16:28:39;11.67;;;5.30;;
16520;SDS011;8373;48.110;11.522;2022-11-20T16:31:09;14.67;;;5.83;;
16520;SDS011;8373;48.110;11.522;2022-11-20T16:33:37;12.10;;;4.80;;
16520;SDS011;8373;48.110;11.522;2022-11-20T16:36:08;9.40;;;4.73;;
16520;SDS011;8373;48.110;11.522;2022-11-20T16:38:35;10.00;;;5.73;;
16520;SDS011;8373;48.110;11.522;2022-11-20T16:41:03;10.83;;;5.13;;
16520;SDS011;8373;48.110;11.522;2022-11-20T16:43:31;9.93;;;5.30;;
16520;SDS011;8373;48.110;11.522;2022-11-20T16:45:58;16.50;;;6.10;;
16520;SDS011;8373;48.110;11.522;2022-11-20T16:48:30;14.30;;;5.90;;
16520;SDS011;8373;48.110;11.522;2022-11-20T16:50:57;11.50;;;5.50;;
16520;SDS011;8373;48.110;11.522;2022-11-20T16:53:24;20.10;;;6.27;;
16520;SDS011;8373;48.110;11.522;2022-11-20T16:55:51;17.47;;;6.40;;
16520;SDS011;8373;48.110;11.522;2022-11-20T16:58:18;19.53;;;7.00;;
16520;SDS011;8373;48.110;11.522;2022-11-20T17:00:46;12.80;;;5.90;;
16520;SDS011;8373;48.110;11.522;2022-11-20T17:03:13;16.63;;;6.47;;
16520;SDS011;8373;48.110;11.522;2022-11-20T17:05:41;17.33;;;6.60;;
16520;SDS011;8373;48.110;11.522;2022-11-20T17:08:08;17.27;;;7.43;;
16520;SDS011;8373;48.110;11.522;2022-11-20T17:10:35;17.00;;;8.10;;
16520;SDS011;8373;48.110;11.522;2022-11-20T17:13:02;14.87;;;7.50;;
16520;SDS011;8373;48.110;11.522;2022-11-20T17:15:30;12.33;;;7.40;;
16520;SDS011;8373;48.110;11.522;2022-11-20T17:17:58;15.47;;;7.60;;
16520;SDS011;8373;48.110;11.522;2022-11-20T17:20:27;22.73;;;8.37;;
16520;SDS011;8373;48.110;11.522;2022-11-20T17:22:55;18.83;;;8.07;;
16520;SDS011;8373;48.110;11.522;2022-11-20T17:25:22;18.10;;;8.30;;
16520;SDS011;8373;48.110;11.522;2022-11-20T17:27:49;22.30;;;8.73;;
16520;SDS011;8373;48.110;11.522;2022-11-20T17:30:16;26.80;;;8.83;;
16520;SDS011;8373;48.110;11.522;2022-11-20T17:32:43;24.10;;;9.37;;
16520;SDS011;8373;48.110;11.522;2022-11-20T17:35:13;22.83;;;8.50;;
16520;SDS011;8373;48.110;11.522;2022-11-20T17:37:40;23.10;;;11.47;;
16520;SDS011;8373;48.110;11.522;2022-11-20T17:40:07;21.70;;;10.60;;
16520;SDS011;8373;48.110;11.522;2022-11-20T17:42:34;31.17;;;11.23;;
16520;SDS011;8373;48.110;11.522;2022-11-20T17:45:02;13.30;;;7.80;;
16520;SDS011;8373;48.110;11.522;2022-11-20T17:47:29;21.13;;;9.23;;
16520;SDS011;8373;48.110;11.522;2022-11-20T17:49:56;14.83;;;7.23;;
16520;SDS011;8373;48.110;11.522;2022-11-20T17:52:25;10.70;;;6.50;;
16520;SDS011;8373;48.110;11.522;2022-11-20T17:54:52;11.97;;;6.70;;
16520;SDS011;8373;48.110;11.522;2022-11-20T17:57:20;12.53;;;6.40;;
16520;SDS011;8373;48.110;11.522;2022-11-20T18:00:05;17.20;;;7.37;;
16520;SDS011;8373;48.110;11.522;2022-11-20T18:02:34;20.30;;;9.00;;
16520;SDS011;8373;48.110;11.522;2022-11-20T18:05:01;18.60;;;8.60;;
16520;SDS011;8373;48.110;11.522;2022-11-20T18:07:29;27.20;;;8.90;;
16520;SDS011;8373;48.110;11.522;2022-11-20T18:09:57;27.20;;;12.10;;
16520;SDS011;8373;48.110;11.522;2022-11-20T18:12:23;20.33;;;8.90;;
16520;SDS011;8373;48.110;11.522;2022-11-20T18:14:50;19.77;;;8.67;;
16520;SDS011;8373;48.110;11.522;2022-11-20T18:17:17;12.77;;;7.27;;
16520;SDS011;8373;48.110;11.522;2022-11-20T18:19:45;21.63;;;8.80;;
16520;SDS011;8373;48.110;11.522;2022-11-20T18:22:15;18.37;;;9.03;;
16520;SDS011;8373;48.110;11.522;2022-11-20T18:24:45;17.90;;;9.30;;
16520;SDS011;8373;48.110;11.522;2022-11-20T18:27:13;22.87;;;8.93;;
16520;SDS011;8373;48.110;11.522;2022-11-20T18:29:41;22.43;;;9.10;;
16520;SDS011;8373;48.110;11.522;2022-11-20T18:32:08;16.57;;;7.77;;
16520;SDS011;8373;48.110;11.522;2022-11-20T18:34:35;20.63;;;9.43;;
16520;SDS011;8373;48.110;11.522;2022-11-20T18:37:02;17.00;;;9.30;;
16520;SDS011;8373;48.110;11.522;2022-11-20T18:39:29;20.93;;;9.30;;
16520;SDS011;8373;48.110;11.522;2022-11-20T18:41:57;25.50;;;10.80;;
16520;SDS011;8373;48.110;11.522;2022-11-20T18:44:41;21.47;;;9.10;;
16520;SDS011;8373;48.110;11.522;2022-11-20T18:47:19;26.40;;;10.60;;
16520;SDS011;8373;48.110;11.522;2022-11-20T18:49:48;23.27;;;10.40;;
16520;SDS011;8373;48.110;11.522;2022-11-20T18:52:17;25.03;;;10.73;;
16520;SDS011;8373;48.110;11.522;2022-11-20T18:54:45;16.70;;;7.90;;
16520;SDS011;8373;48.110;11.522;2022-11-20T18:57:13;34.20;;;9.40;;
16520;SDS011;8373;48.110;11.522;2022-11-20T18:59:42;16.77;;;8.43;;
16520;SDS011;8373;48.110;11.522;2022-11-20T19:02:09;17.10;;;8.70;;
16520;SDS011;8373;48.110;11.522;2022-11-20T19:04:37;22.60;;;8.87;;
16520;SDS011;8373;48.110;11.522;2022-11-20T19:07:04;18.00;;;8.40;;
16520;SDS011;8373;48.110;11.522;2022-11-20T19:09:32;16.23;;;7.50;;
16520;SDS011;8373;48.110;11.522;2022-11-20T19:11:59;23.93;;;7.43;;
16520;SDS011;8373;48.110;11.522;2022-11-20T19:14:27;19.60;;;8.93;;
16520;SDS011;8373;48.110;11.522;2022-11-20T19:16:54;23.23;;;8.27;;
16520;SDS011;8373;48.110;11.522;2022-11-20T19:19:21;27.13;;;8.03;;
16520;SDS011;8373;48.110;11.522;2022-11-20T19:21:48;31.73;;;9.57;;
16520;SDS011;8373;48.110;11.522;2022-11-20T19:24:16;20.37;;;6.93;;
16520;SDS011;8373;48.110;11.522;2022-11-20T19:26:43;15.57;;;7.87;;
16520;SDS011;8373;48.110;11.522;2022-11-20T19:29:11;27.03;;;11.00;;
16520;SDS011;8373;48.110;11.522;2022-11-20T19:31:41;19.97;;;8.83;;
16520;SDS011;8373;48.110;11.522;2022-11-20T19:34:09;12.07;;;7.40;;
16520;SDS011;8373;48.110;11.522;2022-11-20T19:36:38;17.93;;;8.70;;
16520;SDS011;8373;48.110;11.522;2022-11-20T19:39:06;17.13;;;8.90;;
16520;SDS011;8373;48.110;11.522;2022-11-20T19:41:34;15.53;;;8.10;;
16520;SDS011;8373;48.110;11.522;2022-11-20T19:44:03;13.03;;;6.80;;
16520;SDS011;8373;48.110;11.522;2022-11-20T19:46:32;13.67;;;6.97;;
16520;SDS011;8373;48.110;11.522;2022-11-20T19:49:02;26.20;;;8.83;;
16520;SDS011;8373;48.110;11.522;2022-11-20T19:51:31;13.57;;;6.40;;
16520;SDS011;8373;48.110;11.522;2022-11-20T19:53:59;16.57;;;7.70;;
16520;SDS011;8373;48.110;11.522;2022-11-20T19:56:27;14.30;;;6.37;;
16520;SDS011;8373;48.110;11.522;2022-11-20T19:58:56;12.97;;;7.27;;
16520;SDS011;8373;48.110;11.522;2022-11-20T20:01:23;18.53;;;8.30;;
16520;SDS011;8373;48.110;11.522;2022-11-20T20:03:52;18.13;;;7.50;;
16520;SDS011;8373;48.110;11.522;2022-11-20T20:06:21;24.40;;;8.17;;
16520;SDS011;8373;48.110;11.522;2022-11-20T20:08:52;15.13;;;7.17;;
16520;SDS011;8373;48.110;11.522;2022-11-20T20:11:21;17.47;;;8.00;;
16520;SDS011;8373;48.110;11.522;2022-11-20T20:13:49;18.33;;;7.27;;
16520;SDS011;8373;48.110;11.522;2022-11-20T20:16:17;25.27;;;9.47;;
16520;SDS011;8373;48.110;11.522;2022-11-20T20:18:45;20.47;;;8.17;;
16520;SDS011;8373;48.110;11.522;2022-11-20T20:21:13;16.13;;;6.83;;
16520;SDS011;8373;48.110;11.522;2022-11-20T20:23:44;17.40;;;7.00;;
16520;SDS011;8373;48.110;11.522;2022-11-20T20:26:15;22.80;;;8.47;;
16520;SDS011;8373;48.110;11.522;2022-11-20T20:28:45;20.90;;;8.07;;
16520;SDS011;8373;48.110;11.522;2022-11-20T20:31:12;24.37;;;9.00;;
16520;SDS011;8373;48.110;11.522;2022-11-20T20:33:41;24.50;;;8.30;;
16520;SDS011;8373;48.110;11.522;2022-11-20T20:36:09;26.17;;;8.87;;
16520;SDS011;8373;48.110;11.522;2022-11-20T20:38:37;19.63;;;7.17;;
16520;SDS011;8373;48.110;11.522;2022-11-20T20:41:07;14.83;;;6.80;;
16520;SDS011;8373;48.110;11.522;2022-11-20T20:43:34;15.17;;;6.37;;
16520;SDS011;8373;48.110;11.522;2022-11-20T20:46:22;16.60;;;7.20;;
16520;SDS011;8373;48.110;11.522;2022-11-20T20:48:48;10.60;;;5.27;;
16520;SDS011;8373;48.110;11.522;2022-11-20T20:51:15;11.33;;;5.00;;
16520;SDS011;8373;48.110;11.522;2022-11-20T20:53:42;12.27;;;6.00;;
16520;SDS011;8373;48.110;11.522;2022-11-20T20:56:10;12.83;;;5.90;;
16520;SDS011;8373;48.110;11.522;2022-11-20T20:58:37;10.33;;;6.00;;
16520;SDS011;8373;48.110;11.522;2022-11-20T21:01:05;14.30;;;5.30;;
16520;SDS011;8373;48.110;11.522;2022-11-20T21:03:36;11.87;;;5.07;;
16520;SDS011;8373;48.110;11.522;2022-11-20T21:06:04;13.00;;;4.87;;
16520;SDS011;8373;48.110;11.522;2022-11-20T21:08:32;10.13;;;5.03;;
16520;SDS011;8373;48.110;11.522;2022-11-20T21:11:00;13.17;;;4.70;;
16520;SDS011;8373;48.110;11.522;2022-11-20T21:13:29;10.33;;;4.23;;
16520;SDS011;8373;48.110;11.522;2022-11-20T21:15:57;8.10;;;3.93;;
16520;SDS011;8373;48.110;11.522;2022-11-20T21:18:24;9.73;;;4.47;;
16520;SDS011;8373;48.110;11.522;2022-11-20T21:20:51;9.57;;;4.10;;
16520;SDS011;8373;48.110;11.522;2022-11-20T21:23:36;9.83;;;4.43;;
16520;SDS011;8373;48.110;11.522;2022-11-20T21:26:04;8.27;;;4.07;;
16520;SDS011;8373;48.110;11.522;2022-11-20T21:28:34;10.40;;;4.30;;
16520;SDS011;8373;48.110;11.522;2022-11-20T21:31:02;6.90;;;3.70;;
16520;SDS011;8373;48.110;11.522;2022-11-20T21:33:34;7.50;;;3.90;;
16520;SDS011;8373;48.110;11.522;2022-11-20T21:36:03;12.67;;;5.03;;
16520;SDS011;8373;48.110;11.522;2022-11-20T21:38:30;8.00;;;3.90;;
16520;SDS011;8373;48.110;11.522;2022-11-20T21:40:57;7.30;;;3.53;;
16520;SDS011;8373;48.110;11.522;2022-11-20T21:43:24;10.60;;;4.43;;
16520;SDS011;8373;48.110;11.522;2022-11-20T21:45:58;9.40;;;4.37;;
16520;SDS011;8373;48.110;11.522;2022-11-20T21:48:26;9.03;;;3.60;;
16520;SDS011;8373;48.110;11.522;2022-11-20T21:50:54;7.33;;;3.87;;
16520;SDS011;8373;48.110;11.522;2022-11-20T21:53:21;8.80;;;4.60;;
16520;SDS011;8373;48.110;11.522;2022-11-20T21:55:51;8.50;;;3.80;;
16520;SDS011;8373;48.110;11.522;2022-11-20T21:58:19;7.87;;;3.80;;
16520;SDS011;8373;48.110;11.522;2022-11-20T22:00:46;6.97;;;3.73;;
16520;SDS011;8373;48.110;11.522;2022-11-20T22:03:15;7.27;;;3.53;;
16520;SDS011;8373;48.110;11.522;2022-11-20T22:05:42;12.87;;;4.00;;
16520;SDS011;8373;48.110;11.522;2022-11-20T22:08:09;10.57;;;4.47;;
16520;SDS011;8373;48.110;11.522;2022-11-20T22:10:37;10.53;;;3.73;;
16520;SDS011;8373;48.110;11.522;2022-11-20T22:13:04;9.27;;;4.87;;
16520;SDS011;8373;48.110;11.522;2022-11-20T22:15:49;8.47;;;4.00;;
16520;SDS011;8373;48.110;11.522;2022-11-20T22:18:19;9.53;;;4.33;;
16520;SDS011;8373;48.110;11.522;2022-11-20T22:20:46;7.47;;;3.70;;
16520;SDS011;8373;48.110;11.522;2022-11-20T22:23:13;10.10;;;4.53;;
16520;SDS011;8373;48.110;11.522;2022-11-20T22:25:40;15.20;;;4.90;;
16520;SDS011;8373;48.110;11.522;2022-11-20T22:28:07;8.00;;;4.30;;
16520;SDS011;8373;48.110;11.522;2022-11-20T22:30:35;7.50;;;3.73;;
16520;SDS011;8373;48.110;11.522;2022-11-20T22:33:02;9.17;;;3.50;;
16520;SDS011;8373;48.110;11.522;2022-11-20T22:35:30;9.27;;;4.10;;
16520;SDS011;8373;48.110;11.522;2022-11-20T22:37:57;9.17;;;4.37;;
16520;SDS011;8373;48.110;11.522;2022-11-20T22:40:24;8.63;;;4.83;;
16520;SDS011;8373;48.110;11.522;2022-11-20T22:42:51;7.47;;;4.10;;
16520;SDS011;8373;48.110;11.522;2022-11-20T22:45:18;7.30;;;3.70;;
16520;SDS011;8373;48.110;11.522;2022-11-20T22:47:45;9.10;;;4.07;;
16520;SDS011;8373;48.110;11.522;2022-11-20T22:50:12;6.73;;;3.30;;
16520;SDS011;8373;48.110;11.522;2022-11-20T22:52:40;11.33;;;4.70;;
16520;SDS011;8373;48.110;11.522;2022-11-20T22:55:07;8.90;;;3.20;;
16520;SDS011;8373;48.110;11.522;2022-11-20T22:57:34;9.33;;;3.90;;
16520;SDS011;8373;48.110;11.522;2022-11-20T23:00:02;12.23;;;4.50;;
16520;SDS011;8373;48.110;11.522;2022-11-20T23:02:30;12.93;;;3.50;;
16520;SDS011;8373;48.110;11.522;2022-11-20T23:04:56;8.17;;;3.97;;
16520;SDS011;8373;48.110;11.522;2022-11-20T23:07:23;7.80;;;3.47;;
16520;SDS011;8373;48.110;11.522;2022-11-20T23:09:52;7.23;;;3.33;;
16520;SDS011;8373;48.110;11.522;2022-11-20T23:12:18;6.70;;;2.90;;
16520;SDS011;8373;48.110;11.522;2022-11-20T23:14:45;7.10;;;3.00;;
16520;SDS011;8373;48.110;11.522;2022-11-20T23:17:12;6.67;;;3.03;;
16520;SDS011;8373;48.110;11.522;2022-11-20T23:19:39;6.27;;;2.83;;
16520;SDS011;8373;48.110;11.522;2022-11-20T23:22:06;6.53;;;2.67;;
16520;SDS011;8373;48.110;11.522;2022-11-20T23:24:33;5.20;;;2.47;;
16520;SDS011;8373;48.110;11.522;2022-11-20T23:27:01;6.40;;;2.80;;
16520;SDS011;8373;48.110;11.522;2022-11-20T23:29:28;5.50;;;2.40;;
16520;SDS011;8373;48.110;11.522;2022-11-20T23:31:55;7.40;;;2.57;;
16520;SDS011;8373;48.110;11.522;2022-11-20T23:34:22;4.87;;;2.40;;
16520;SDS011;8373;48.110;11.522;2022-11-20T23:36:49;4.60;;;2.17;;
16520;SDS011;8373;48.110;11.522;2022-11-20T23:39:16;4.83;;;2.33;;
16520;SDS011;8373;48.110;11.522;2022-11-20T23:41:43;4.63;;;2.20;;
16520;SDS011;8373;48.110;11.522;2022-11-20T23:44:11;4.70;;;1.80;;
16520;SDS011;8373;48.110;11.522;2022-11-20T23:46:38;6.50;;;2.20;;
16520;SDS011;8373;48.110;11.522;2022-11-20T23:49:05;4.50;;;2.10;;
16520;SDS011;8373;48.110;11.522;2022-11-20T23:51:32;4.30;;;2.00;;
16520;SDS011;8373;48.110;11.522;2022-11-20T23:53:59;4.20;;;1.90;;
16520;SDS011;8373;48.110;11.522;2022-11-20T23:56:26;4.90;;;2.40;;
16520;SDS011;8373;48.110;11.522;2022-11-20T23:58:53;4.83;;;2.10;;
